WEATHER DATA

YESTERDAY
Time Temp. Dewp. Hum. Bar. 1h Prec. 24h Prec.
00:02 10.5 10.5 100 1003.3 2.0200 0.9000
00:12 10.2 10.2 100 1003.2 2.0200 0.9000
00:22 10 10 100 1003.1 2.2220 1.1000
00:32 9.8 9.8 100 1003.1 2.3230 1.2000
00:42 9.7 9.7 100 1002.9 2.8280 1.7000
00:52 9.6 9.6 100 1002.8 1.7170 1.7000
01:02 9.4 9.4 100 1002.8 0.8080 1.7000
01:13 9.2 9.2 100 1002.8 0.8080 1.7000
01:22 9.1 9.1 100 1002.9 0.7070 1.8000
01:32 8.8 8.8 100 1003 0.6060 1.8000
01:42 8.7 8.7 100 1003 0.1010 1.8000
01:53 8.6 8.6 100 1003 0.1010 1.8000
02:03 8.5 8.5 100 1003.2 0.1010 1.8000
02:12 8.4 8.4 100 1003.3 0.1010 1.8000
02:23 8.4 8.4 100 1003.3 0.0000 1.8000
02:33 8.2 8.2 100 1003.4 0.0000 1.8000
02:43 8.1 8.1 100 1003.4 0.0000 1.8000
02:53 7.9 7.9 100 1003.4 0.0000 1.8000
03:04 7.8 7.8 100 1003.5 0.0000 1.8000
03:13 7.8 7.8 100 1003.5 0.0000 1.8000
03:23 7.7 7.7 100 1003.5 0.0000 1.8000
03:34 7.6 7.6 100 1003.6 0.0000 1.8000
03:44 7.5 7.5 100 1003.7 0.0000 1.8000
03:53 7.4 7.4 100 1003.8 0.0000 1.8000
04:03 7.3 7.3 100 1004 0.0000 1.8000
04:14 7.2 7.2 100 1004.1 0.0000 1.8000
04:24 7.2 7.2 100 1004.4 0.0000 1.8000
04:34 7.3 7.3 100 1004.6 0.0000 1.8000
04:54 7.5 7.5 100 1004.8 0.0000 1.8000
05:04 7.5 7.5 100 1004.9 0.0000 1.8000
05:14 7.5 7.5 100 1005 0.0000 1.8000
05:25 7.6 7.6 100 1005.1 0.0000 1.8000
05:34 7.6 7.6 100 1005.2 0.0000 1.8000
05:44 7.6 7.6 100 1005.3 0.0000 1.8000
05:55 7.7 7.7 100 1005.4 0.0000 1.8000
06:05 7.8 7.8 100 1005.5 0.0000 1.8000
06:15 7.9 7.9 100 1005.6 0.0000 1.8000
06:24 8 8 100 1005.7 0.0000 1.8000
06:35 8.3 8.3 100 1005.8 0.0000 1.8000
06:45 8.7 8.7 100 1005.9 0.0000 1.8000
06:55 9 9 100 1006 0.0000 1.8000
07:05 9.2 9.2 100 1006 0.0000 1.8000
07:16 9.5 9.5 100 1006 0.0000 1.8000
07:26 9.8 9.8 100 1006.2 0.0000 1.8000
07:35 10.2 10.2 100 1006.3 0.0000 1.8000
07:46 10.5 10.5 100 1006.3 0.0000 1.8000
07:56 10.8 10.8 100 1006.3 0.0000 1.8000
08:06 11.2 11.2 100 1006.3 0.0000 1.8000
08:16 11.5 11.5 100 1006.5 0.0000 1.8000
08:26 11.9 11.9 100 1006.5 0.0000 1.8000
08:36 12.2 12.2 100 1006.7 0.0000 1.8000
08:46 12.4 12.4 100 1006.8 0.0000 1.8000
08:56 12.5 12.5 100 1006.9 0.0000 1.8000
09:06 12.7 12.7 100 1006.9 0.0000 1.8000
09:16 12.9 12.9 100 1006.9 0.0000 1.8000
09:26 13.2 13.2 100 1006.9 0.0000 1.8000
09:37 13.6 13.6 100 1006.8 0.0000 1.8000
09:47 14 14 100 1006.8 0.0000 1.8000
09:56 14.4 14.4 100 1006.9 0.0000 1.8000
10:07 14.6 14.6 100 1007 0.0000 1.8000
10:17 14.4 14.4 100 1007.1 0.0000 1.8000
10:27 14.5 14.5 100 1007.2 0.0000 1.8000
10:37 14.6 14.6 100 1007.2 0.0000 1.8000
10:48 14.7 14.7 100 1007.2 0.0000 1.8000
10:57 14.7 14.7 100 1007.2 0.0000 1.8000
11:07 14.7 14.7 100 1007.3 0.0000 1.8000
11:18 14.9 14.9 100 1007.3 0.0000 1.8000
11:28 15 15 100 1007.4 0.0000 1.8000
11:38 14.9 14.9 100 1007.4 0.0000 1.8000
11:47 15 15 100 1007.5 0.0000 1.8000
11:58 15.1 15.1 100 1007.5 0.0000 1.8000
12:08 15.1 15.1 100 1007.6 0.0000 1.8000
12:18 15.3 15.3 100 1007.7 0.0000 1.8000
12:28 15.5 15.5 100 1007.8 0.0000 1.8000
12:38 15.8 15.8 100 1007.8 0.0000 1.8000
12:49 16.4 16.4 100 1007.9 0.0000 1.8000
12:59 16.5 16.5 100 1007.9 0.0000 1.8000
13:09 16.5 16.5 100 1008 0.0000 1.8000
13:18 16.2 16.2 100 1008.1 0.0000 1.8000
13:29 16.2 16.2 100 1008.2 0.0000 1.8000
13:39 16.2 16.2 100 1008.2 0.0000 1.8000
13:49 16.1 16.1 100 1008.3 0.0000 1.8000
13:59 16.3 16.3 100 1008.4 0.0000 1.8000
14:09 16.7 16.7 100 1008.3 0.0000 1.8000
14:19 16.7 16.7 100 1008.3 0.0000 1.8000
14:29 16.8 16.8 100 1008.3 0.0000 1.8000
14:40 16.9 16.9 100 1008.2 0.0000 1.8000
14:49 17 17 100 1008.2 0.0000 1.8000
14:59 16.9 16.3 96 1008.1 0.0000 1.8000
15:10 17.1 14.6 85 1008 0.0000 1.8000
15:20 17.3 13.8 80 1008.1 0.0000 1.8000
15:30 17.4 12.9 75 1008.2 0.0000 1.8000
15:40 17.4 12.5 73 1008.1 0.0000 1.8000
15:50 17.4 12.7 74 1008.2 0.0000 1.8000
16:00 17.4 12.1 71 1008.2 0.0000 1.8000
16:10 17.4 12.5 73 1008.1 0.0000 1.8000
16:20 17.4 12.1 71 1008.1 0.0000 1.8000
16:31 17.3 11.3 68 1008.1 0.0000 1.8000
16:41 17.4 12.5 73 1008.2 0.0000 1.8000
16:51 17.5 12 70 1008.3 0.0000 1.8000
17:01 17.5 12.2 71 1008.3 0.0000 1.8000
17:12 17.5 12.4 72 1008.2 0.0000 1.8000
17:21 17.5 12 70 1008.1 0.0000 1.8000
17:31 17.5 11.3 67 1008.1 0.0000 1.8000
17:42 17.5 12.4 72 1007.9 0.0000 1.8000
17:52 17.5 12.4 72 1008 0.0000 1.8000
18:02 17.4 11.9 70 1008.1 0.0000 1.8000
18:12 17.2 11.7 70 1008.1 0.0000 1.8000
18:22 17.2 11.7 70 1008.1 0.0000 1.8000
18:32 17.1 11.2 68 1008.1 0.0000 1.8000
18:42 17.2 11.5 69 1008 0.0000 1.8000
18:53 17.2 11.2 68 1007.8 0.0000 1.8000
19:02 17.1 11.2 68 1007.9 0.0000 1.8000
19:12 17 11.5 70 1007.8 0.0000 1.8000
19:22 16.9 11.4 70 1007.8 0.0000 1.8000
19:33 16.8 11.5 71 1007.8 0.0000 1.8000
19:43 16.8 11.5 71 1007.7 0.0000 1.8000
19:53 16.9 11.6 71 1007.6 0.0000 1.8000
20:03 16.8 11.7 72 1007.6 0.0000 1.8000
20:13 16.7 11.4 71 1007.6 0.0000 1.8000
20:23 16.6 11.7 73 1007.6 0.0000 1.8000
20:33 16.5 11.9 74 1007.6 0.0000 1.8000
20:44 16.3 11.7 74 1007.6 0.0000 1.8000
20:54 16.2 12 76 1007.7 0.0000 1.8000
21:03 16.1 12.1 77 1007.8 0.0000 1.8000
21:14 16 12.4 79 1007.8 0.0000 1.8000
21:24 15.9 12.5 80 1007.9 0.0000 1.8000
21:44 15.6 12.5 82 1007.9 0.0000 1.8000
21:55 15.3 12.2 82 1007.9 0.0000 1.8000
22:04 15 12.1 83 1008 0.0000 1.8000
22:14 14.7 12 84 1008 0.0000 1.8000
22:35 14.4 11.9 85 1008 0.0000 1.8000
22:45 14.3 12 86 1008.1 0.0000 1.8000
22:55 14.1 11.8 86 1008.1 0.0000 1.8000
23:05 13.9 11.6 86 1008.2 0.0000 1.8000
23:15 13.8 11.7 87 1008.3 0.0000 1.8000
23:25 13.6 11.5 87 1008.4 0.0000 1.8000
23:35 13.5 11.4 87 1008.4 0.0000 1.8000
23:46 13.2 11.3 88 1008.5 0.0000 1.8000
23:56 12.9 11 88 1008.6 0.0000 1.8000

DAY STATISTIC

2018-06-22
TEMPERATURE
AVERAGE
13.3
HIGH
17.5
16:51
LOW
7.2
04:14
PRESSURE
AVERAGE
1006.6
HIGH
1008.6
23:56
LOW
1002.8
00:52
DEWPOINT
AVERAGE
11.7
HIGH
17.0
14:49
LOW
7.2
04:14
HUMIDITY
AVERAGE
91
HIGH
100
00:02
LOW
67
17:31
PRECIPITATION
RAIN HOUR
2.8
RAIN DAY
1.8
TEMPERATURE (°C)
LOW
7.2
HIGH
17.5
AVERAGE
13.3
PRESSURE (hpa)
LOW
1002.8
HIGH
1008.6
AVERAGE
1006.6
DEVICE